createdAt,value
2023-02-26T00:01:40.627Z,64.13
2023-02-26T00:04:09.717Z,64.53
2023-02-26T00:06:39.946Z,63.27
2023-02-26T00:09:08.179Z,62.28
2023-02-26T00:11:36.403Z,63.68
2023-02-26T00:14:04.666Z,63.97
2023-02-26T00:16:36.250Z,63.54
2023-02-26T00:19:07.325Z,62.88
2023-02-26T00:21:36.777Z,63.80
2023-02-26T00:24:06.879Z,62.98
2023-02-26T00:26:36.176Z,63.73
2023-02-26T00:29:04.869Z,63.46
2023-02-26T00:31:33.098Z,63.08
2023-02-26T00:34:01.757Z,63.82
2023-02-26T00:36:53.669Z,62.62
2023-02-26T00:39:46.822Z,62.17
2023-02-26T00:42:15.327Z,63.05
2023-02-26T00:44:44.091Z,63.17
2023-02-26T00:47:54.026Z,63.82
2023-02-26T00:50:24.299Z,63.50
2023-02-26T00:53:09.512Z,63.87
2023-02-26T00:55:38.822Z,64.27
2023-02-26T00:58:06.702Z,64.57
2023-02-26T01:00:34.744Z,62.85
2023-02-26T01:03:04.054Z,64.27
2023-02-26T01:05:32.290Z,64.68
2023-02-26T01:08:16.123Z,63.27
2023-02-26T01:10:44.767Z,63.18
2023-02-26T01:13:13.028Z,63.73
2023-02-26T01:15:46.438Z,63.76
2023-02-26T01:18:19.847Z,63.79
2023-02-26T01:20:51.697Z,65.17
2023-02-26T01:23:25.127Z,63.68
2023-02-26T01:25:59.629Z,61.90
2023-02-26T01:28:28.225Z,63.39
2023-02-26T01:31:01.090Z,64.54
2023-02-26T01:33:34.459Z,63.43
2023-02-26T01:36:09.339Z,64.13
2023-02-26T01:39:11.284Z,61.97
2023-02-26T01:41:43.998Z,63.25
2023-02-26T01:44:28.029Z,62.70
2023-02-26T01:47:18.344Z,63.72
2023-02-26T01:49:46.943Z,62.33
2023-02-26T01:52:49.138Z,62.65
2023-02-26T01:55:24.417Z,62.40
2023-02-26T01:57:54.358Z,62.14
2023-02-26T02:00:22.744Z,62.48
2023-02-26T02:02:54.312Z,62.99
2023-02-26T02:05:45.739Z,62.83
2023-02-26T02:08:14.347Z,63.51
2023-02-26T02:10:45.185Z,63.91
2023-02-26T02:13:16.250Z,62.37
2023-02-26T02:16:01.604Z,61.62
2023-02-26T02:18:34.785Z,62.64
2023-02-26T02:21:49.632Z,63.69
2023-02-26T02:24:43.359Z,63.46
2023-02-26T02:27:15.287Z,62.50
2023-02-26T02:30:08.302Z,64.06
2023-02-26T02:32:44.600Z,64.38
2023-02-26T02:35:31.052Z,64.93
2023-02-26T02:38:04.785Z,64.53
2023-02-26T02:40:37.125Z,64.46
2023-02-26T02:43:10.505Z,67.09
2023-02-26T02:45:45.631Z,66.71
2023-02-26T02:48:19.486Z,66.09
2023-02-26T02:50:52.415Z,65.76
2023-02-26T02:53:58.697Z,64.42
2023-02-26T02:56:35.088Z,65.36
2023-02-26T02:59:35.382Z,64.81
2023-02-26T03:02:42.192Z,64.78
2023-02-26T03:05:10.658Z,65.01
2023-02-26T03:07:45.453Z,65.75
2023-02-26T03:10:15.067Z,64.33
2023-02-26T03:12:43.014Z,65.29
2023-02-26T03:15:11.218Z,65.60
2023-02-26T03:17:59.606Z,64.42
2023-02-26T03:20:32.851Z,66.05
2023-02-26T03:23:16.948Z,68.02
2023-02-26T03:26:19.343Z,67.80
2023-02-26T03:29:02.469Z,65.70
2023-02-26T03:31:36.353Z,66.59
2023-02-26T03:34:44.271Z,66.93
2023-02-26T03:37:20.497Z,65.45
2023-02-26T03:39:50.314Z,65.50
2023-02-26T03:42:18.116Z,66.10
2023-02-26T03:45:14.201Z,67.30
2023-02-26T03:47:46.407Z,68.40
2023-02-26T03:50:40.714Z,67.75
2023-02-26T03:53:13.750Z,68.14
2023-02-26T03:55:47.089Z,68.73
2023-02-26T03:58:16.249Z,68.15
2023-02-26T04:00:46.658Z,68.08
2023-02-26T04:03:29.098Z,66.91
2023-02-26T04:05:57.726Z,66.80
2023-02-26T04:08:26.406Z,68.89
2023-02-26T04:10:58.523Z,68.45
2023-02-26T04:13:28.511Z,67.32
2023-02-26T04:15:57.382Z,67.66
2023-02-26T04:18:25.995Z,68.33
2023-02-26T04:20:54.501Z,68.48
2023-02-26T04:23:22.508Z,67.52
2023-02-26T04:25:50.723Z,68.49
2023-02-26T04:28:19.091Z,68.86
2023-02-26T04:30:47.919Z,69.56
2023-02-26T04:33:16.490Z,69.42
2023-02-26T04:35:44.734Z,67.74
2023-02-26T04:38:12.721Z,67.94
2023-02-26T04:40:40.963Z,69.13
2023-02-26T04:43:10.993Z,69.80
2023-02-26T04:45:40.405Z,68.54
2023-02-26T04:48:08.296Z,69.84
2023-02-26T04:50:37.304Z,69.51
2023-02-26T04:53:05.211Z,69.31
2023-02-26T04:55:35.383Z,70.37
2023-02-26T04:58:04.433Z,68.70
2023-02-26T05:00:32.393Z,69.86
2023-02-26T05:03:00.432Z,68.79
2023-02-26T05:05:28.703Z,68.96
2023-02-26T05:07:57.069Z,69.93
2023-02-26T05:10:25.849Z,68.92
2023-02-26T05:12:54.213Z,68.89
2023-02-26T05:15:22.098Z,69.23
2023-02-26T05:17:50.351Z,70.47
2023-02-26T05:20:18.709Z,70.12
2023-02-26T05:22:47.118Z,70.19
2023-02-26T05:25:15.108Z,70.49
2023-02-26T05:27:43.452Z,69.07
2023-02-26T05:30:13.959Z,69.91
2023-02-26T05:32:43.553Z,70.72
2023-02-26T05:35:12.207Z,70.30
2023-02-26T05:37:40.269Z,70.01
2023-02-26T05:40:10.998Z,69.92
2023-02-26T05:42:40.050Z,69.75
2023-02-26T05:45:08.467Z,71.30
2023-02-26T05:47:36.545Z,71.20
2023-02-26T05:50:06.543Z,71.03
2023-02-26T05:52:34.619Z,71.60
2023-02-26T05:55:03.099Z,71.88
2023-02-26T05:57:31.683Z,71.49
2023-02-26T05:59:59.572Z,70.28
2023-02-26T06:02:27.554Z,71.78
2023-02-26T06:04:55.897Z,70.35
2023-02-26T06:07:24.772Z,69.39
2023-02-26T06:09:52.829Z,69.89
2023-02-26T06:12:21.101Z,72.22
2023-02-26T06:14:49.003Z,70.43
2023-02-26T06:17:16.895Z,69.49
2023-02-26T06:19:45.696Z,69.82
2023-02-26T06:22:13.583Z,71.56
2023-02-26T06:24:41.432Z,70.08
2023-02-26T06:27:09.796Z,69.76
2023-02-26T06:29:37.851Z,70.47
2023-02-26T06:32:06.293Z,72.12
2023-02-26T06:34:34.799Z,70.97
2023-02-26T06:37:02.654Z,70.81
2023-02-26T06:39:30.673Z,70.87
2023-02-26T06:41:59.168Z,70.47
2023-02-26T06:44:27.160Z,70.16
2023-02-26T06:46:55.093Z,70.56
2023-02-26T06:49:23.374Z,72.00
2023-02-26T06:51:51.504Z,69.64
2023-02-26T06:54:19.349Z,72.17
2023-02-26T06:56:47.577Z,73.55
2023-02-26T06:59:15.640Z,73.77
2023-02-26T07:01:43.525Z,71.55
2023-02-26T07:04:11.896Z,71.87
2023-02-26T07:06:40.078Z,73.59
2023-02-26T07:09:08.368Z,73.71
2023-02-26T07:11:38.131Z,73.24
2023-02-26T07:14:06.363Z,70.86
2023-02-26T07:16:34.343Z,73.01
2023-02-26T07:19:02.647Z,72.63
2023-02-26T07:21:30.515Z,72.85
2023-02-26T07:23:58.408Z,71.13
2023-02-26T07:26:26.988Z,72.47
2023-02-26T07:28:55.106Z,72.24
2023-02-26T07:31:23.269Z,71.75
2023-02-26T07:33:51.798Z,71.62
2023-02-26T07:36:19.710Z,69.54
2023-02-26T07:38:47.608Z,69.09
2023-02-26T07:41:15.835Z,68.33
2023-02-26T07:43:43.744Z,67.50
2023-02-26T07:46:11.650Z,68.07
2023-02-26T07:48:40.084Z,68.30
2023-02-26T07:51:08.264Z,67.81
2023-02-26T07:53:36.148Z,68.23
2023-02-26T07:56:04.661Z,68.47
2023-02-26T07:58:32.631Z,69.61
2023-02-26T08:01:00.565Z,66.66
2023-02-26T08:03:29.156Z,67.12
2023-02-26T08:05:57.308Z,66.63
2023-02-26T08:08:25.230Z,68.49
2023-02-26T08:10:53.510Z,66.76
2023-02-26T08:13:21.521Z,66.87
2023-02-26T08:15:49.435Z,68.68
2023-02-26T08:18:17.687Z,67.68
2023-02-26T08:20:45.572Z,68.79
2023-02-26T08:23:13.671Z,67.52
2023-02-26T08:25:41.832Z,68.19
2023-02-26T08:28:09.716Z,68.44
2023-02-26T08:30:37.686Z,68.82
2023-02-26T08:33:05.988Z,70.69
2023-02-26T08:35:33.971Z,70.03
2023-02-26T08:38:01.899Z,70.58
2023-02-26T08:40:30.154Z,69.26
2023-02-26T08:43:00.035Z,70.16
2023-02-26T08:45:28.097Z,69.62
2023-02-26T08:47:57.454Z,68.15
2023-02-26T08:50:26.633Z,67.61
2023-02-26T08:52:54.805Z,68.10
2023-02-26T08:55:23.453Z,67.83
2023-02-26T08:57:51.448Z,69.12
2023-02-26T09:00:19.899Z,67.35
2023-02-26T09:02:48.599Z,65.79
2023-02-26T09:05:16.894Z,66.63
2023-02-26T09:07:45.367Z,66.37
2023-02-26T09:10:14.493Z,64.39
2023-02-26T09:12:42.742Z,64.64
2023-02-26T09:15:11.858Z,66.78
2023-02-26T09:17:41.294Z,65.52
2023-02-26T09:20:10.317Z,66.97
2023-02-26T09:22:38.450Z,65.09
2023-02-26T09:25:07.252Z,65.65
2023-02-26T09:27:35.851Z,66.41
2023-02-26T09:30:07.016Z,64.86
2023-02-26T09:32:35.470Z,63.17
2023-02-26T09:35:04.692Z,64.34
2023-02-26T09:37:32.948Z,64.76
2023-02-26T09:40:01.302Z,64.98
2023-02-26T09:42:38.603Z,62.39
2023-02-26T09:45:13.129Z,64.26
2023-02-26T09:47:47.033Z,64.13
2023-02-26T09:50:25.411Z,63.81
2023-02-26T09:52:59.788Z,61.91
2023-02-26T09:55:47.913Z,62.24
2023-02-26T09:58:30.795Z,60.23
2023-02-26T10:01:11.254Z,60.47
2023-02-26T10:04:18.833Z,59.05
2023-02-26T10:07:11.174Z,61.02
2023-02-26T10:10:05.576Z,61.96
2023-02-26T10:12:36.552Z,59.03
2023-02-26T10:15:32.801Z,58.46
2023-02-26T10:18:18.556Z,57.48
2023-02-26T10:21:04.625Z,58.06
2023-02-26T10:23:45.276Z,57.01
2023-02-26T10:26:35.718Z,58.11
2023-02-26T10:29:12.682Z,59.00
2023-02-26T10:31:43.753Z,58.23
2023-02-26T10:34:25.308Z,57.51
2023-02-26T10:37:10.459Z,56.81
2023-02-26T10:39:52.350Z,57.25
2023-02-26T10:42:27.950Z,56.48
2023-02-26T10:45:07.710Z,56.68
2023-02-26T10:47:44.458Z,53.33
2023-02-26T10:50:13.768Z,53.98
2023-02-26T10:52:44.601Z,52.34
2023-02-26T10:55:33.541Z,51.62
2023-02-26T10:58:19.692Z,53.01
2023-02-26T11:00:50.357Z,52.76
2023-02-26T11:03:21.500Z,53.20
2023-02-26T11:05:49.764Z,49.93
2023-02-26T11:08:33.958Z,49.64
2023-02-26T11:11:04.604Z,51.04
2023-02-26T11:13:35.022Z,52.60
2023-02-26T11:16:15.009Z,51.91
2023-02-26T11:18:53.454Z,51.70
2023-02-26T11:21:24.394Z,51.10
2023-02-26T11:23:57.134Z,51.82
2023-02-26T11:26:27.995Z,54.00
2023-02-26T11:28:56.178Z,53.73
2023-02-26T11:31:25.458Z,53.73
2023-02-26T11:33:59.765Z,54.14
2023-02-26T11:36:30.365Z,54.66
2023-02-26T11:39:05.682Z,53.68
2023-02-26T11:41:39.058Z,54.65
2023-02-26T11:44:16.205Z,52.65
2023-02-26T11:46:56.291Z,52.38
2023-02-26T11:49:27.419Z,53.30
2023-02-26T11:52:17.554Z,51.03
2023-02-26T11:54:49.649Z,49.34
2023-02-26T11:57:20.701Z,48.34
2023-02-26T11:59:51.377Z,49.09
2023-02-26T12:02:23.599Z,47.39
2023-02-26T12:04:54.635Z,46.53
2023-02-26T12:07:22.998Z,46.98
2023-02-26T12:09:51.706Z,48.60
2023-02-26T12:12:45.750Z,47.26
2023-02-26T12:15:27.763Z,48.94
2023-02-26T12:18:09.443Z,49.58
2023-02-26T12:20:40.915Z,48.10
2023-02-26T12:23:31.546Z,48.85
2023-02-26T12:26:29.076Z,48.55
2023-02-26T12:29:08.829Z,48.64
2023-02-26T12:31:53.327Z,48.68
2023-02-26T12:34:36.747Z,49.88
2023-02-26T12:37:31.364Z,49.48
2023-02-26T12:40:18.063Z,50.25
2023-02-26T12:42:46.370Z,50.29
2023-02-26T12:45:39.528Z,50.63
2023-02-26T12:48:34.368Z,50.50
2023-02-26T12:51:16.318Z,49.56
2023-02-26T12:54:07.975Z,50.86
2023-02-26T12:57:07.934Z,50.91
2023-02-26T13:00:13.496Z,51.03
2023-02-26T13:03:00.034Z,51.89
2023-02-26T13:05:50.286Z,50.86
2023-02-26T13:08:43.180Z,49.92
2023-02-26T13:11:41.472Z,50.07
2023-02-26T13:14:19.373Z,52.80
2023-02-26T13:16:58.623Z,53.48
2023-02-26T13:19:32.703Z,51.34
2023-02-26T13:22:16.515Z,52.28
2023-02-26T13:24:51.810Z,53.82
2023-02-26T13:27:21.616Z,52.96
2023-02-26T13:29:57.154Z,53.22
2023-02-26T13:32:27.418Z,52.52
2023-02-26T13:35:01.320Z,51.65
2023-02-26T13:37:38.733Z,50.40
2023-02-26T13:41:00.945Z,49.83
2023-02-26T13:43:55.494Z,51.41
2023-02-26T13:46:57.219Z,51.05
2023-02-26T13:49:46.711Z,51.03
2023-02-26T13:52:50.488Z,52.77
2023-02-26T13:55:46.654Z,51.13
2023-02-26T13:58:23.950Z,52.58
2023-02-26T14:01:21.072Z,52.59
2023-02-26T14:04:07.303Z,51.48
2023-02-26T14:06:46.338Z,51.91
2023-02-26T14:09:24.054Z,50.56
2023-02-26T14:11:55.004Z,51.17
2023-02-26T14:14:23.625Z,51.88
2023-02-26T14:17:16.007Z,53.38
2023-02-26T14:19:53.879Z,53.69
2023-02-26T14:22:31.457Z,53.24
2023-02-26T14:25:05.834Z,50.70
2023-02-26T14:27:37.642Z,49.90
2023-02-26T14:30:09.343Z,52.45
2023-02-26T14:32:59.326Z,52.71
2023-02-26T14:35:40.610Z,53.67
2023-02-26T14:38:14.889Z,53.52
2023-02-26T14:40:47.597Z,53.01
2023-02-26T14:43:47.773Z,54.95
2023-02-26T14:46:16.828Z,53.79
2023-02-26T14:48:45.199Z,52.72
2023-02-26T14:51:22.534Z,54.21
2023-02-26T14:54:16.057Z,54.29
2023-02-26T14:57:06.567Z,53.31
2023-02-26T15:00:10.375Z,52.85
2023-02-26T15:02:50.575Z,53.88
2023-02-26T15:05:54.647Z,53.05
2023-02-26T15:08:36.763Z,52.84
2023-02-26T15:11:13.327Z,53.65
2023-02-26T15:14:12.210Z,53.97
2023-02-26T15:16:44.915Z,53.71
2023-02-26T15:19:37.153Z,54.62
2023-02-26T15:22:36.891Z,56.74
2023-02-26T15:25:13.337Z,54.86
2023-02-26T15:27:41.782Z,55.75
2023-02-26T15:30:15.421Z,55.19
2023-02-26T15:32:44.251Z,54.83
2023-02-26T15:35:21.139Z,55.97
2023-02-26T15:37:51.927Z,55.59
2023-02-26T15:40:20.856Z,55.46
2023-02-26T15:42:53.544Z,54.98
2023-02-26T15:45:42.924Z,55.46
2023-02-26T15:48:32.623Z,55.56
2023-02-26T15:51:06.652Z,55.79
2023-02-26T15:53:38.357Z,55.87
2023-02-26T15:56:12.907Z,55.77
2023-02-26T15:58:47.040Z,55.43
2023-02-26T16:01:17.644Z,55.20
2023-02-26T16:03:46.553Z,60.01
2023-02-26T16:06:25.735Z,56.68
2023-02-26T16:08:55.049Z,54.68
2023-02-26T16:11:23.497Z,55.06
2023-02-26T16:13:52.742Z,53.60
2023-02-26T16:16:45.974Z,53.51
2023-02-26T16:19:44.991Z,53.40
2023-02-26T16:22:42.363Z,54.95
2023-02-26T16:25:16.699Z,55.02
2023-02-26T16:27:50.170Z,54.30
2023-02-26T16:30:22.970Z,55.69
2023-02-26T16:32:54.042Z,55.25
2023-02-26T16:35:24.595Z,54.68
2023-02-26T16:37:55.416Z,54.38
2023-02-26T16:40:35.964Z,55.21
2023-02-26T16:43:07.329Z,56.79
2023-02-26T16:45:35.433Z,55.75
2023-02-26T16:48:17.494Z,55.26
2023-02-26T16:50:54.747Z,53.62
2023-02-26T16:53:23.304Z,53.21
2023-02-26T16:55:56.595Z,54.84
2023-02-26T16:58:25.095Z,56.16
2023-02-26T17:01:00.193Z,55.61
2023-02-26T17:03:29.667Z,54.28
2023-02-26T17:06:01.554Z,55.59
2023-02-26T17:08:46.783Z,55.84
2023-02-26T17:11:30.118Z,55.53
2023-02-26T17:14:04.839Z,58.84
2023-02-26T17:16:33.257Z,57.91
2023-02-26T17:19:02.146Z,57.97
2023-02-26T17:21:30.766Z,56.44
2023-02-26T17:23:59.341Z,57.71
2023-02-26T17:26:27.684Z,57.34
2023-02-26T17:28:55.822Z,56.94
2023-02-26T17:31:24.518Z,57.08
2023-02-26T17:33:53.306Z,56.57
2023-02-26T17:36:21.587Z,58.66
2023-02-26T17:38:50.775Z,58.14
2023-02-26T17:41:19.358Z,59.22
2023-02-26T17:43:49.238Z,58.09
2023-02-26T17:46:17.677Z,59.02
2023-02-26T17:48:45.856Z,59.95
2023-02-26T17:51:16.065Z,58.61
2023-02-26T17:53:46.834Z,58.83
2023-02-26T17:56:26.702Z,58.46
2023-02-26T17:58:56.425Z,59.63
2023-02-26T18:01:27.031Z,59.33
2023-02-26T18:03:56.153Z,59.17
2023-02-26T18:06:25.367Z,58.77
2023-02-26T18:08:54.417Z,59.59
2023-02-26T18:11:26.257Z,59.94
2023-02-26T18:13:55.586Z,58.50
2023-02-26T18:16:29.593Z,57.17
2023-02-26T18:18:59.759Z,56.04
2023-02-26T18:21:28.872Z,57.00
2023-02-26T18:23:57.763Z,56.99
2023-02-26T18:26:28.089Z,57.67
2023-02-26T18:28:57.204Z,60.58
2023-02-26T18:31:33.559Z,60.61
2023-02-26T18:34:04.443Z,62.36
2023-02-26T18:36:38.017Z,60.86
2023-02-26T18:39:13.829Z,59.58
2023-02-26T18:41:42.045Z,59.61
2023-02-26T18:44:11.485Z,60.23
2023-02-26T18:46:42.026Z,60.24
2023-02-26T18:49:18.633Z,60.39
2023-02-26T18:51:46.608Z,61.10
2023-02-26T18:54:14.973Z,61.30
2023-02-26T18:56:43.010Z,62.73
2023-02-26T18:59:10.985Z,61.76
2023-02-26T19:01:39.463Z,60.79
2023-02-26T19:04:08.272Z,60.93
2023-02-26T19:06:36.349Z,59.45
2023-02-26T19:09:06.137Z,61.34
2023-02-26T19:11:34.560Z,60.24
2023-02-26T19:14:03.373Z,63.38
2023-02-26T19:16:35.470Z,63.90
2023-02-26T19:19:05.520Z,62.93
2023-02-26T19:21:34.610Z,63.05
2023-02-26T19:24:05.030Z,65.31
2023-02-26T19:26:34.290Z,63.57
2023-02-26T19:29:04.315Z,65.59
2023-02-26T19:31:32.778Z,64.23
2023-02-26T19:34:02.924Z,63.01
2023-02-26T19:36:33.728Z,62.37
2023-02-26T19:39:05.549Z,62.32
2023-02-26T19:41:34.033Z,62.48
2023-02-26T19:44:02.372Z,64.37
2023-02-26T19:46:30.537Z,62.77
2023-02-26T19:48:58.527Z,62.90
2023-02-26T19:51:27.196Z,64.70
2023-02-26T19:53:55.475Z,65.18
2023-02-26T19:56:23.593Z,64.18
2023-02-26T19:58:52.135Z,65.71
2023-02-26T20:01:20.254Z,67.87
2023-02-26T20:03:49.172Z,68.75
2023-02-26T20:06:18.415Z,67.25
2023-02-26T20:08:46.525Z,64.14
2023-02-26T20:11:14.892Z,63.30
2023-02-26T20:13:43.037Z,64.73
2023-02-26T20:16:11.565Z,62.35
2023-02-26T20:18:40.155Z,60.31
2023-02-26T20:21:09.801Z,60.64
2023-02-26T20:23:39.431Z,62.27
2023-02-26T20:26:13.568Z,62.15
2023-02-26T20:28:42.551Z,63.74
2023-02-26T20:31:12.180Z,63.95
2023-02-26T20:33:40.443Z,62.98
2023-02-26T20:36:10.015Z,63.47
2023-02-26T20:38:38.731Z,60.41
2023-02-26T20:41:06.871Z,60.55
2023-02-26T20:43:35.329Z,60.61
2023-02-26T20:46:04.010Z,62.56
2023-02-26T20:48:32.500Z,61.75
2023-02-26T20:51:02.140Z,62.14
2023-02-26T20:53:30.527Z,62.20
2023-02-26T20:55:58.648Z,60.10
2023-02-26T20:58:26.964Z,61.45
2023-02-26T21:00:56.724Z,60.68
2023-02-26T21:03:24.922Z,62.21
2023-02-26T21:05:52.971Z,59.53
2023-02-26T21:08:22.054Z,59.58
2023-02-26T21:10:51.906Z,60.71
2023-02-26T21:13:19.905Z,62.36
2023-02-26T21:15:50.325Z,65.17
2023-02-26T21:18:18.420Z,61.91
2023-02-26T21:20:46.453Z,61.39
2023-02-26T21:23:14.954Z,59.92
2023-02-26T21:25:42.979Z,59.47
2023-02-26T21:28:10.990Z,60.84
2023-02-26T21:30:39.567Z,61.29
2023-02-26T21:33:08.779Z,64.02
2023-02-26T21:35:36.851Z,61.83
2023-02-26T21:38:05.271Z,61.92
2023-02-26T21:40:33.382Z,60.81
2023-02-26T21:43:01.714Z,61.36
2023-02-26T21:45:30.879Z,62.04
2023-02-26T21:47:58.988Z,61.67
2023-02-26T21:50:27.055Z,64.96
2023-02-26T21:52:55.488Z,63.87
2023-02-26T21:55:23.633Z,58.13
2023-02-26T21:57:52.410Z,53.00
2023-02-26T22:00:21.281Z,51.28
2023-02-26T22:02:49.700Z,49.38
2023-02-26T22:05:18.430Z,49.51
2023-02-26T22:07:46.805Z,49.96
2023-02-26T22:10:15.370Z,49.19
2023-02-26T22:12:43.448Z,49.85
2023-02-26T22:15:11.823Z,49.83
2023-02-26T22:17:40.226Z,50.26
2023-02-26T22:20:10.242Z,50.23
2023-02-26T22:22:38.561Z,50.48
2023-02-26T22:25:08.239Z,50.50
2023-02-26T22:27:36.335Z,51.00
2023-02-26T22:30:06.860Z,48.87
2023-02-26T22:32:35.599Z,48.21
2023-02-26T22:35:04.134Z,48.50
2023-02-26T22:37:32.198Z,49.42
2023-02-26T22:40:00.532Z,51.58
2023-02-26T22:42:28.666Z,49.75
2023-02-26T22:44:57.364Z,49.15
2023-02-26T22:47:26.014Z,49.43
2023-02-26T22:49:54.066Z,49.69
2023-02-26T22:52:22.224Z,48.74
2023-02-26T22:54:53.344Z,49.30
2023-02-26T22:57:21.460Z,50.03
2023-02-26T22:59:49.556Z,49.89
2023-02-26T23:02:18.029Z,50.17
2023-02-26T23:04:46.015Z,51.75
2023-02-26T23:07:14.107Z,52.02
2023-02-26T23:09:42.553Z,51.29
2023-02-26T23:12:11.260Z,52.65
2023-02-26T23:14:39.269Z,49.90
2023-02-26T23:17:09.188Z,50.39
2023-02-26T23:19:38.470Z,51.40
2023-02-26T23:22:06.621Z,51.37
2023-02-26T23:24:35.028Z,53.58
2023-02-26T23:27:03.268Z,56.10
2023-02-26T23:29:31.297Z,54.15
2023-02-26T23:31:59.784Z,52.65
2023-02-26T23:34:28.000Z,52.70
2023-02-26T23:36:56.138Z,53.12
2023-02-26T23:39:26.215Z,53.14
2023-02-26T23:41:55.649Z,54.44
2023-02-26T23:44:24.174Z,54.79
2023-02-26T23:46:52.593Z,53.97
2023-02-26T23:49:20.583Z,53.61
2023-02-26T23:51:48.701Z,53.74
2023-02-26T23:54:17.051Z,55.92
2023-02-26T23:56:47.237Z,54.90
2023-02-26T23:59:15.479Z,53.07
